This is the latest recevied weather packets stored in our database for station/object K5NWZ. If no packets are shown the sender has not sent any weather packets the latest 10 day(s).
| Time | Temp. | Humidity | Pressure | Rain* | Wind** | Luminosity | Snow |
|---|---|---|---|---|---|---|---|
| 1777422371 | 14.44° C | 29% | 1024.5 hPa | 0 mm | - | 88 W/m² | - |
| 1777422066 | 14.44° C | 29% | 1024.7 hPa | 0 mm | - | 99 W/m² | - |
| 1777421761 | 13.89° C | 30% | 1024.5 hPa | 0 mm | - | 45 W/m² | - |
| 1777421457 | 14.44° C | 31% | 1024.5 hPa | 0 mm | - | 46 W/m² | - |
| 1777421153 | 15° C | 29% | 1024.5 hPa | 0 mm | - | 50 W/m² | - |
| 1777420850 | 15° C | 29% | 1024.1 hPa | 0 mm | - | 163 W/m² | - |
| 1777420545 | 16.67° C | 24% | 1024.2 hPa | 0 mm | - | 91 W/m² | - |
| 1777420242 | 16.67° C | 24% | 1024.4 hPa | 0 mm | - | 193 W/m² | - |
| 1777419937 | 16.67° C | 23% | 1024.2 hPa | 0 mm | - | 211 W/m² | - |
| 1777419635 | 16.67° C | 24% | 1024 hPa | 0 mm | - | 226 W/m² | - |
| 1777419333 | 16.67° C | 27% | 1024.4 hPa | 0 mm | - | 252 W/m² | - |
| 1777419032 | 16.67° C | 27% | 1024 hPa | 0 mm | - | 269 W/m² | - |
| 1777418731 | 16.67° C | 26% | 1024.4 hPa | 0 mm | - | 296 W/m² | - |
| 1777418428 | 16.11° C | 29% | 1024.1 hPa | 0 mm | - | 318 W/m² | - |
| 1777418124 | 15.56° C | 35% | 1024 hPa | 0 mm | - | 340 W/m² | - |
| 1777417821 | 15.56° C | 35% | 1024 hPa | 0 mm | - | 348 W/m² | - |
| 1777417521 | 15° C | 36% | 1023.8 hPa | 0 mm | - | 168 W/m² | - |
| 1777417218 | 16.11° C | 34% | 1023.8 hPa | 0 mm | - | 370 W/m² | - |
| 1777416914 | 15.56° C | 32% | 1023.9 hPa | 0 mm | - | 386 W/m² | - |
| 1777416609 | 15.56° C | 35% | 1023.8 hPa | 0 mm | - | 434 W/m² | - |
| 1777416306 | 15.56° C | 34% | 1023.7 hPa | 0 mm | - | 416 W/m² | - |
| 1777416004 | 15° C | 34% | 1023.9 hPa | 0 mm | - | 437 W/m² | - |
| 1777415700 | 15° C | 35% | 1023.7 hPa | 0 mm | - | 441 W/m² | - |
| 1777415395 | 16.67° C | 33% | 1023.5 hPa | 0 mm | - | 460 W/m² | - |
| 1777415090 | 16.67° C | 33% | 1023.7 hPa | 0 mm | - | 481 W/m² | - |
* Rain latest hour (hover to see other rain measurements)
** Current wind speed in m/s (hover to see current wind gust speed)